createdAt,value
2023-02-15T00:01:24.289Z,0
2023-02-15T00:03:30.543Z,0
2023-02-15T00:05:37.691Z,0
2023-02-15T00:06:41.506Z,0
2023-02-15T00:08:47.085Z,0
2023-02-15T00:10:54.484Z,0
2023-02-15T00:13:00.476Z,0
2023-02-15T00:14:03.228Z,0
2023-02-15T00:16:09.876Z,0
2023-02-15T00:18:16.349Z,0
2023-02-15T00:20:22.282Z,0
2023-02-15T00:21:25.778Z,0
2023-02-15T00:23:32.330Z,0
2023-02-15T00:25:38.610Z,0
2023-02-15T00:27:46.238Z,0
2023-02-15T00:28:49.942Z,0
2023-02-15T00:30:57.505Z,0
2023-02-15T00:33:05.025Z,0
2023-02-15T00:34:08.044Z,0
2023-02-15T00:35:12.316Z,0
2023-02-15T00:36:16.489Z,0
2023-02-15T00:38:22.734Z,0
2023-02-15T00:40:28.748Z,0
2023-02-15T00:41:31.825Z,0
2023-02-15T00:43:39.555Z,0
2023-02-15T00:45:46.500Z,0
2023-02-15T00:47:52.720Z,0
2023-02-15T00:48:56.100Z,0
2023-02-15T00:51:02.503Z,0
2023-02-15T00:53:08.956Z,0
2023-02-15T00:55:16.447Z,0
2023-02-15T00:56:19.784Z,0
2023-02-15T00:58:26.436Z,0
2023-02-15T01:00:33.302Z,0
2023-02-15T01:02:40.852Z,0
2023-02-15T01:03:44.629Z,0
2023-02-15T01:04:48.433Z,0
2023-02-15T01:05:51.856Z,0
2023-02-15T01:07:58.369Z,0
2023-02-15T01:09:01.842Z,0
2023-02-15T01:10:04.910Z,0
2023-02-15T01:11:08.571Z,0
2023-02-15T01:13:15.186Z,0
2023-02-15T01:15:22.426Z,0
2023-02-15T01:16:26.725Z,0
2023-02-15T01:17:29.460Z,0
2023-02-15T01:18:32.165Z,0
2023-02-15T01:20:38.123Z,0
2023-02-15T01:21:41.563Z,0
2023-02-15T01:22:43.787Z,0
2023-02-15T01:23:47.389Z,0
2023-02-15T01:25:53.631Z,0
2023-02-15T01:28:00.726Z,0
2023-02-15T01:29:03.557Z,0
2023-02-15T01:31:12.221Z,0
2023-02-15T01:33:19.135Z,0
2023-02-15T01:35:25.284Z,0
2023-02-15T01:36:28.972Z,0
2023-02-15T01:38:34.765Z,0
2023-02-15T01:40:41.398Z,0
2023-02-15T01:42:48.515Z,0
2023-02-15T01:43:51.780Z,0
2023-02-15T01:45:58.993Z,0
2023-02-15T01:48:05.843Z,0
2023-02-15T01:49:08.827Z,0
2023-02-15T01:50:12.842Z,0
2023-02-15T01:51:15.977Z,0
2023-02-15T01:53:22.745Z,0
2023-02-15T01:54:26.571Z,0
2023-02-15T01:56:32.182Z,0
2023-02-15T01:58:38.972Z,0
2023-02-15T02:00:45.261Z,0
2023-02-15T02:01:49.094Z,0
2023-02-15T02:03:56.369Z,0
2023-02-15T02:06:04.674Z,0
2023-02-15T02:07:07.768Z,0
2023-02-15T02:08:11.056Z,0
2023-02-15T02:09:14.555Z,0
2023-02-15T02:11:21.288Z,0
2023-02-15T02:12:24.629Z,0
2023-02-15T02:13:27.972Z,0
2023-02-15T02:14:31.095Z,0
2023-02-15T02:16:37.838Z,0
2023-02-15T02:17:41.019Z,0
2023-02-15T02:19:47.737Z,0
2023-02-15T02:21:54.606Z,0
2023-02-15T02:22:57.596Z,0
2023-02-15T02:25:03.718Z,0
2023-02-15T02:26:07.077Z,0
2023-02-15T02:28:13.758Z,0
2023-02-15T02:29:17.015Z,0
2023-02-15T02:30:20.227Z,0
2023-02-15T02:31:24.235Z,0
2023-02-15T02:33:30.495Z,0
2023-02-15T02:35:36.987Z,0
2023-02-15T02:36:40.649Z,0
2023-02-15T02:38:46.536Z,0
2023-02-15T02:39:50.044Z,0
2023-02-15T02:41:56.620Z,0
2023-02-15T02:44:02.939Z,0
2023-02-15T02:45:06.551Z,0
2023-02-15T02:47:12.788Z,0
2023-02-15T02:49:19.669Z,0
2023-02-15T02:50:23.458Z,0
2023-02-15T02:51:27.098Z,0
2023-02-15T02:52:29.923Z,0
2023-02-15T02:54:36.203Z,0
2023-02-15T02:55:39.484Z,0
2023-02-15T02:57:44.736Z,0
2023-02-15T02:59:50.691Z,0
2023-02-15T03:00:53.445Z,0
2023-02-15T03:03:00.041Z,0
2023-02-15T03:04:03.435Z,0
2023-02-15T03:05:06.566Z,0
2023-02-15T03:06:10.381Z,0
2023-02-15T03:08:16.806Z,0
2023-02-15T03:09:19.912Z,0
2023-02-15T03:11:26.432Z,0
2023-02-15T03:13:33.406Z,0
2023-02-15T03:14:36.484Z,0
2023-02-15T03:16:42.048Z,0
2023-02-15T03:18:47.911Z,0
2023-02-15T03:19:51.191Z,0
2023-02-15T03:20:54.651Z,0
2023-02-15T03:21:58.792Z,0
2023-02-15T03:24:04.862Z,0
2023-02-15T03:25:07.992Z,0
2023-02-15T03:27:13.768Z,0
2023-02-15T03:29:19.899Z,0
2023-02-15T03:30:24.316Z,0
2023-02-15T03:32:30.452Z,0
2023-02-15T03:34:37.148Z,0
2023-02-15T03:35:41.047Z,0
2023-02-15T03:36:44.909Z,0
2023-02-15T03:37:48.671Z,0
2023-02-15T03:39:54.891Z,0
2023-02-15T03:40:58.496Z,0
2023-02-15T03:43:04.820Z,0
2023-02-15T03:45:11.275Z,0
2023-02-15T03:46:15.162Z,0
2023-02-15T03:48:21.312Z,0
2023-02-15T03:50:27.204Z,0
2023-02-15T03:51:30.576Z,0
2023-02-15T03:52:33.491Z,0
2023-02-15T03:53:37.525Z,0
2023-02-15T03:55:43.524Z,0
2023-02-15T03:56:46.902Z,0
2023-02-15T03:57:49.998Z,0
2023-02-15T03:58:53.609Z,0
2023-02-15T04:00:59.707Z,0
2023-02-15T04:02:03.080Z,0
2023-02-15T04:04:10.115Z,0
2023-02-15T04:06:15.141Z,0
2023-02-15T04:08:21.653Z,0
2023-02-15T04:09:25.667Z,0
2023-02-15T04:11:31.203Z,0
2023-02-15T04:13:37.025Z,0
2023-02-15T04:15:43.885Z,0
2023-02-15T04:16:47.451Z,0
2023-02-15T04:18:54.265Z,0
2023-02-15T04:21:00.610Z,0
2023-02-15T04:23:05.926Z,0
2023-02-15T04:24:09.004Z,0
2023-02-15T04:26:15.984Z,0
2023-02-15T04:28:22.854Z,0
2023-02-15T04:30:30.086Z,0
2023-02-15T04:31:34.071Z,0
2023-02-15T04:33:41.228Z,0
2023-02-15T04:35:46.804Z,0
2023-02-15T04:37:52.006Z,0
2023-02-15T04:38:54.817Z,0
2023-02-15T04:41:02.729Z,0
2023-02-15T04:43:08.230Z,0
2023-02-15T04:45:15.093Z,0
2023-02-15T04:46:18.458Z,0
2023-02-15T04:48:24.227Z,0
2023-02-15T04:50:31.157Z,0
2023-02-15T04:52:36.549Z,0
2023-02-15T04:53:39.896Z,0
2023-02-15T04:55:46.828Z,0
2023-02-15T04:57:53.740Z,0
2023-02-15T05:00:00.295Z,0
2023-02-15T05:01:03.658Z,0
2023-02-15T05:03:10.492Z,0
2023-02-15T05:05:16.861Z,0
2023-02-15T05:07:22.272Z,0
2023-02-15T05:08:24.974Z,0
2023-02-15T05:10:31.695Z,0
2023-02-15T05:12:38.981Z,0
2023-02-15T05:14:45.245Z,0
2023-02-15T05:15:48.615Z,0
2023-02-15T05:17:55.072Z,0
2023-02-15T05:20:00.988Z,0
2023-02-15T05:22:07.435Z,0
2023-02-15T05:23:09.876Z,0
2023-02-15T05:25:16.847Z,0
2023-02-15T05:27:24.332Z,0
2023-02-15T05:29:30.106Z,0
2023-02-15T05:30:34.702Z,0
2023-02-15T05:32:44.497Z,0
2023-02-15T05:34:51.023Z,0
2023-02-15T05:36:56.570Z,0
2023-02-15T05:37:59.439Z,0
2023-02-15T05:39:02.835Z,0
2023-02-15T05:40:05.832Z,0
2023-02-15T05:42:12.081Z,0
2023-02-15T05:43:16.157Z,0
2023-02-15T05:44:20.203Z,0
2023-02-15T05:45:22.921Z,0
2023-02-15T05:47:29.489Z,0
2023-02-15T05:48:33.536Z,0
2023-02-15T05:49:37.255Z,0
2023-02-15T05:50:40.637Z,0
2023-02-15T05:52:45.548Z,0
2023-02-15T05:54:51.125Z,0
2023-02-15T05:55:53.945Z,0
2023-02-15T05:58:00.772Z,0
2023-02-15T06:00:08.203Z,0
2023-02-15T06:01:11.490Z,0
2023-02-15T06:02:14.859Z,0
2023-02-15T06:03:17.711Z,0
2023-02-15T06:05:24.304Z,0
2023-02-15T06:07:30.751Z,0
2023-02-15T06:08:33.792Z,0
2023-02-15T06:09:36.578Z,0
2023-02-15T06:10:39.970Z,0
2023-02-15T06:12:46.044Z,0
2023-02-15T06:13:49.427Z,0
2023-02-15T06:14:52.272Z,0
2023-02-15T06:15:56.732Z,0
2023-02-15T06:18:03.142Z,0
2023-02-15T06:20:09.239Z,0
2023-02-15T06:21:12.256Z,1
2023-02-15T06:23:18.441Z,1
2023-02-15T06:25:24.336Z,1
2023-02-15T06:27:30.879Z,2
2023-02-15T06:28:33.697Z,2
2023-02-15T06:30:41.198Z,2
2023-02-15T06:32:49.171Z,3
2023-02-15T06:34:55.716Z,3
2023-02-15T06:35:59.070Z,4
2023-02-15T06:38:05.336Z,4
2023-02-15T06:40:11.945Z,5
2023-02-15T06:42:18.753Z,6
2023-02-15T06:43:21.603Z,7
2023-02-15T06:45:27.726Z,7
2023-02-15T06:47:35.170Z,8
2023-02-15T06:49:40.676Z,9
2023-02-15T06:50:44.403Z,10
2023-02-15T06:52:50.833Z,10
2023-02-15T06:54:57.374Z,11
2023-02-15T06:57:04.851Z,12
2023-02-15T06:58:08.626Z,13
2023-02-15T06:59:12.015Z,14
2023-02-15T07:00:15.392Z,14
2023-02-15T07:02:22.498Z,15
2023-02-15T07:04:30.406Z,16
2023-02-15T07:05:34.440Z,16
2023-02-15T07:06:37.880Z,17
2023-02-15T07:07:41.283Z,17
2023-02-15T07:09:48.087Z,19
2023-02-15T07:11:54.734Z,20
2023-02-15T07:12:57.176Z,22
2023-02-15T07:15:03.867Z,22
2023-02-15T07:17:38.307Z,24
2023-02-15T07:19:45.391Z,25
2023-02-15T07:21:52.463Z,28
2023-02-15T07:22:55.568Z,28
2023-02-15T07:25:01.540Z,30
2023-02-15T07:27:08.817Z,30
2023-02-15T07:29:14.939Z,32
2023-02-15T07:30:19.571Z,32
2023-02-15T07:32:26.614Z,33
2023-02-15T07:34:34.132Z,36
2023-02-15T07:36:40.676Z,36
2023-02-15T07:37:43.695Z,35
2023-02-15T07:39:49.906Z,30
2023-02-15T07:41:56.964Z,28
2023-02-15T07:44:03.537Z,34
2023-02-15T07:45:06.681Z,36
2023-02-15T07:46:10.344Z,35
2023-02-15T07:47:13.461Z,38
2023-02-15T07:49:20.431Z,39
2023-02-15T07:50:24.270Z,47
2023-02-15T07:51:28.270Z,49
2023-02-15T07:52:31.362Z,50
2023-02-15T07:54:38.237Z,51
2023-02-15T07:55:41.318Z,57
2023-02-15T07:56:44.449Z,54
2023-02-15T07:57:48.025Z,55
2023-02-15T07:59:54.201Z,60
2023-02-15T08:02:01.078Z,56
2023-02-15T08:03:05.576Z,53
2023-02-15T08:05:12.495Z,56
2023-02-15T08:07:19.351Z,49
2023-02-15T08:08:22.997Z,50
2023-02-15T08:09:26.337Z,53
2023-02-15T08:10:29.435Z,50
2023-02-15T08:12:36.246Z,60
2023-02-15T08:13:39.916Z,61
2023-02-15T08:15:46.402Z,57
2023-02-15T08:17:53.844Z,64
2023-02-15T08:19:58.810Z,77
2023-02-15T08:21:02.641Z,66
2023-02-15T08:23:09.301Z,74
2023-02-15T08:25:14.928Z,67
2023-02-15T08:27:21.346Z,80
2023-02-15T08:28:24.393Z,73
2023-02-15T08:29:28.048Z,71
2023-02-15T08:30:33.901Z,79
2023-02-15T08:32:42.154Z,86
2023-02-15T08:33:45.606Z,94
2023-02-15T08:34:48.662Z,89
2023-02-15T08:35:52.081Z,90
2023-02-15T08:37:59.450Z,94
2023-02-15T08:39:02.246Z,94
2023-02-15T08:40:05.047Z,90
2023-02-15T08:41:08.383Z,92
2023-02-15T08:43:14.509Z,100
2023-02-15T08:44:18.225Z,104
2023-02-15T08:45:21.669Z,106
2023-02-15T08:46:24.960Z,101
2023-02-15T08:48:31.431Z,93
2023-02-15T08:49:34.584Z,86
2023-02-15T08:50:38.218Z,70
2023-02-15T08:51:41.365Z,75
2023-02-15T08:53:48.332Z,100
2023-02-15T08:55:54.149Z,95
2023-02-15T08:56:57.820Z,93
2023-02-15T08:59:04.087Z,82
2023-02-15T09:01:11.658Z,79
2023-02-15T09:03:17.910Z,64
2023-02-15T09:04:20.403Z,59
2023-02-15T09:06:27.411Z,62
2023-02-15T09:08:33.885Z,69
2023-02-15T09:10:40.508Z,69
2023-02-15T09:11:43.614Z,75
2023-02-15T09:13:51.027Z,78
2023-02-15T09:15:57.814Z,93
2023-02-15T09:18:04.396Z,93
2023-02-15T09:19:08.108Z,106
2023-02-15T09:21:14.079Z,116
2023-02-15T09:23:28.627Z,128
2023-02-15T09:25:36.255Z,123
2023-02-15T09:26:39.380Z,113
2023-02-15T09:28:46.402Z,122
2023-02-15T09:30:53.145Z,124
2023-02-15T09:33:00.432Z,138
2023-02-15T09:34:03.613Z,134
2023-02-15T09:36:09.899Z,149
2023-02-15T09:38:15.818Z,155
2023-02-15T09:39:19.485Z,154
2023-02-15T09:40:23.607Z,161
2023-02-15T09:41:27.093Z,156
2023-02-15T09:42:30.122Z,148
2023-02-15T09:43:32.876Z,161
2023-02-15T09:44:36.599Z,167
2023-02-15T09:46:42.396Z,138
2023-02-15T09:47:46.113Z,155
2023-02-15T09:49:51.710Z,164
2023-02-15T09:50:54.982Z,143
2023-02-15T09:53:00.484Z,140
2023-02-15T09:55:07.374Z,126
2023-02-15T09:56:10.933Z,129
2023-02-15T09:58:17.672Z,147
2023-02-15T10:00:25.337Z,133
2023-02-15T10:01:28.874Z,125
2023-02-15T10:03:35.450Z,111
2023-02-15T10:05:42.885Z,123
2023-02-15T10:06:46.019Z,126
2023-02-15T10:08:53.072Z,121
2023-02-15T10:09:55.844Z,116
2023-02-15T10:12:03.233Z,105
2023-02-15T10:13:07.133Z,101
2023-02-15T10:14:10.180Z,105
2023-02-15T10:15:13.664Z,106
2023-02-15T10:17:19.841Z,115
2023-02-15T10:18:23.105Z,108
2023-02-15T10:20:33.770Z,117
2023-02-15T10:22:40.559Z,108
2023-02-15T10:23:43.888Z,106
2023-02-15T10:25:54.343Z,121
2023-02-15T10:28:01.140Z,123
2023-02-15T10:29:05.222Z,121
2023-02-15T10:31:13.446Z,132
2023-02-15T10:32:18.281Z,130
2023-02-15T10:34:24.728Z,123
2023-02-15T10:36:30.906Z,110
2023-02-15T10:37:34.541Z,98
2023-02-15T10:39:41.330Z,96
2023-02-15T10:40:44.508Z,111
2023-02-15T10:42:52.146Z,108
2023-02-15T10:44:59.584Z,107
2023-02-15T10:47:06.603Z,108
2023-02-15T10:48:09.978Z,98
2023-02-15T10:50:16.905Z,107
2023-02-15T10:51:20.336Z,115
2023-02-15T10:53:29.770Z,130
2023-02-15T10:55:35.944Z,115
2023-02-15T10:56:39.397Z,137
2023-02-15T10:58:45.234Z,124
2023-02-15T11:00:52.761Z,124
2023-02-15T11:01:56.526Z,134
2023-02-15T11:04:02.625Z,133
2023-02-15T11:06:10.098Z,125
2023-02-15T11:07:13.308Z,116
2023-02-15T11:08:16.323Z,112
2023-02-15T11:09:20.098Z,121
2023-02-15T11:11:26.583Z,119
2023-02-15T11:12:30.282Z,119
2023-02-15T11:13:33.213Z,116
2023-02-15T11:14:36.597Z,124
2023-02-15T11:16:44.816Z,127
2023-02-15T11:17:48.748Z,130
2023-02-15T11:19:56.261Z,121
2023-02-15T11:22:02.712Z,103
2023-02-15T11:23:06.080Z,102
2023-02-15T11:25:14.275Z,114
2023-02-15T11:27:21.264Z,124
2023-02-15T11:28:25.243Z,133
2023-02-15T11:29:28.288Z,146
2023-02-15T11:30:31.763Z,138
2023-02-15T11:32:40.387Z,144
2023-02-15T11:33:44.135Z,154
2023-02-15T11:35:50.546Z,154
2023-02-15T11:37:57.335Z,144
2023-02-15T11:39:00.674Z,141
2023-02-15T11:41:07.675Z,156
2023-02-15T11:43:13.540Z,150
2023-02-15T11:44:16.836Z,153
2023-02-15T11:46:24.476Z,158
2023-02-15T11:48:31.763Z,170
2023-02-15T11:49:35.135Z,158
2023-02-15T11:50:39.174Z,156
2023-02-15T11:51:42.810Z,156
2023-02-15T11:53:49.616Z,156
2023-02-15T11:55:56.039Z,139
2023-02-15T11:56:59.407Z,149
2023-02-15T11:59:06.017Z,151
2023-02-15T12:01:12.796Z,131
2023-02-15T12:02:15.856Z,126
2023-02-15T12:04:24.234Z,111
2023-02-15T12:06:31.708Z,105
2023-02-15T12:07:34.425Z,104
2023-02-15T12:09:40.755Z,98
2023-02-15T12:10:44.225Z,92
2023-02-15T12:12:50.118Z,99
2023-02-15T12:14:56.589Z,113
2023-02-15T12:16:00.709Z,148
2023-02-15T12:17:03.160Z,193
2023-02-15T12:18:06.213Z,173
2023-02-15T12:20:13.713Z,164
2023-02-15T12:21:17.097Z,156
2023-02-15T12:23:23.591Z,148
2023-02-15T12:25:29.783Z,160
2023-02-15T12:26:32.609Z,177
2023-02-15T12:28:43.010Z,168
2023-02-15T12:30:49.407Z,187
2023-02-15T12:31:53.800Z,165
2023-02-15T12:32:57.732Z,168
2023-02-15T12:34:01.456Z,170
2023-02-15T12:36:09.705Z,132
2023-02-15T12:37:12.646Z,149
2023-02-15T12:39:18.833Z,153
2023-02-15T12:41:25.066Z,162
2023-02-15T12:42:27.865Z,178
2023-02-15T12:43:30.849Z,162
2023-02-15T12:44:34.222Z,134
2023-02-15T12:46:41.721Z,110
2023-02-15T12:47:45.100Z,105
2023-02-15T12:49:51.561Z,106
2023-02-15T12:52:01.909Z,119
2023-02-15T12:53:05.011Z,125
2023-02-15T12:55:11.250Z,157
2023-02-15T12:57:17.382Z,157
2023-02-15T12:58:20.109Z,143
2023-02-15T13:00:28.969Z,147
2023-02-15T13:02:35.795Z,151
2023-02-15T13:03:39.428Z,162
2023-02-15T13:05:47.635Z,228
2023-02-15T13:07:55.458Z,219
2023-02-15T13:10:03.007Z,219
2023-02-15T13:11:07.137Z,224
2023-02-15T13:13:13.361Z,219
2023-02-15T13:15:20.317Z,201
2023-02-15T13:16:24.249Z,190
2023-02-15T13:18:31.462Z,233
2023-02-15T13:20:39.091Z,211
2023-02-15T13:22:45.910Z,331
2023-02-15T13:23:50.257Z,385
2023-02-15T13:25:57.829Z,403
2023-02-15T13:27:18.153Z,244
2023-02-15T13:28:21.834Z,373
2023-02-15T13:29:25.562Z,176
2023-02-15T13:31:33.567Z,224
2023-02-15T13:33:40.272Z,210
2023-02-15T13:34:43.891Z,225
2023-02-15T13:36:49.432Z,228
2023-02-15T13:37:52.736Z,194
2023-02-15T13:40:00.615Z,167
2023-02-15T13:42:08.626Z,158
2023-02-15T13:43:11.960Z,159
2023-02-15T13:45:19.051Z,145
2023-02-15T13:47:26.125Z,124
2023-02-15T13:48:52.960Z,108
2023-02-15T13:49:55.690Z,122
2023-02-15T13:50:59.321Z,137
2023-02-15T13:53:06.667Z,169
2023-02-15T13:54:10.801Z,162
2023-02-15T13:56:17.232Z,134
2023-02-15T13:57:20.470Z,116
2023-02-15T13:58:24.129Z,108
2023-02-15T13:59:28.098Z,101
2023-02-15T14:00:31.790Z,93
2023-02-15T14:01:36.460Z,90
2023-02-15T14:02:39.848Z,91
2023-02-15T14:03:43.973Z,94
2023-02-15T14:05:50.999Z,114
2023-02-15T14:06:53.420Z,111
2023-02-15T14:11:19.007Z,114
2023-02-15T14:12:22.712Z,118
2023-02-15T14:13:26.434Z,104
2023-02-15T14:15:33.447Z,107
2023-02-15T14:17:40.659Z,153
2023-02-15T14:18:44.013Z,199
2023-02-15T14:20:51.464Z,165
2023-02-15T14:21:54.720Z,124
2023-02-15T14:22:57.498Z,111
2023-02-15T14:24:01.185Z,112
2023-02-15T14:25:05.124Z,113
2023-02-15T14:26:08.046Z,114
2023-02-15T14:27:11.769Z,112
2023-02-15T14:29:18.645Z,108
2023-02-15T14:30:22.356Z,104
2023-02-15T14:32:32.359Z,101
2023-02-15T14:33:39.178Z,92
2023-02-15T14:34:42.270Z,91
2023-02-15T14:36:49.038Z,96
2023-02-15T14:37:52.921Z,93
2023-02-15T14:39:59.697Z,96
2023-02-15T14:42:10.747Z,94
2023-02-15T14:43:14.946Z,92
2023-02-15T14:45:22.135Z,92
2023-02-15T14:46:26.525Z,97
2023-02-15T14:47:30.218Z,102
2023-02-15T14:48:34.769Z,99
2023-02-15T14:50:45.751Z,96
2023-02-15T14:51:49.676Z,89
2023-02-15T14:52:53.308Z,82
2023-02-15T14:53:56.759Z,77
2023-02-15T14:56:03.336Z,69
2023-02-15T14:58:10.471Z,67
2023-02-15T14:59:13.939Z,73
2023-02-15T15:01:21.834Z,67
2023-02-15T15:02:25.298Z,64
2023-02-15T15:04:31.815Z,56
2023-02-15T15:06:38.698Z,50
2023-02-15T15:07:42.048Z,47
2023-02-15T15:09:48.206Z,44
2023-02-15T15:11:55.850Z,42
2023-02-15T15:14:02.929Z,39
2023-02-15T15:15:07.443Z,39
2023-02-15T15:17:14.916Z,41
2023-02-15T15:19:21.614Z,39
2023-02-15T15:20:25.014Z,35
2023-02-15T15:22:31.183Z,33
2023-02-15T15:24:37.973Z,32
2023-02-15T15:25:41.107Z,32
2023-02-15T15:27:47.786Z,30
2023-02-15T15:29:54.313Z,29
2023-02-15T15:30:58.858Z,28
2023-02-15T15:33:06.674Z,25
2023-02-15T15:35:13.551Z,23
2023-02-15T15:36:16.613Z,21
2023-02-15T15:38:22.538Z,21
2023-02-15T15:40:29.332Z,18
2023-02-15T15:41:33.143Z,18
2023-02-15T15:43:39.328Z,17
2023-02-15T15:45:45.639Z,15
2023-02-15T15:46:50.088Z,14
2023-02-15T15:48:09.292Z,14
2023-02-15T15:49:12.625Z,13
2023-02-15T15:50:15.803Z,12
2023-02-15T15:51:19.233Z,12
2023-02-15T15:52:22.613Z,11
2023-02-15T15:54:29.697Z,10
2023-02-15T15:56:36.771Z,9
2023-02-15T15:57:40.173Z,8
2023-02-15T15:59:47.058Z,7
2023-02-15T16:01:54.560Z,6
2023-02-15T16:02:58.707Z,6
2023-02-15T16:05:05.548Z,5
2023-02-15T16:07:11.337Z,5
2023-02-15T16:09:17.023Z,4
2023-02-15T16:10:20.387Z,4
2023-02-15T16:12:26.064Z,3
2023-02-15T16:14:32.552Z,2
2023-02-15T16:15:35.616Z,2
2023-02-15T16:17:42.702Z,2
2023-02-15T16:19:50.144Z,2
2023-02-15T16:20:53.771Z,1
2023-02-15T16:23:00.462Z,1
2023-02-15T16:25:06.323Z,1
2023-02-15T16:26:09.960Z,1
2023-02-15T16:28:17.142Z,0
2023-02-15T16:30:24.663Z,0
2023-02-15T16:32:31.835Z,0
2023-02-15T16:33:35.845Z,0
2023-02-15T16:35:42.335Z,0
2023-02-15T16:37:48.832Z,0
2023-02-15T16:38:52.043Z,0
2023-02-15T16:39:55.098Z,0
2023-02-15T16:40:58.759Z,0
2023-02-15T16:43:05.463Z,0
2023-02-15T16:45:11.962Z,0
2023-02-15T16:46:15.062Z,0
2023-02-15T16:48:21.545Z,0
2023-02-15T16:50:29.113Z,0
2023-02-15T16:51:32.791Z,0
2023-02-15T16:52:36.089Z,0
2023-02-15T16:53:39.416Z,0
2023-02-15T16:55:45.832Z,0
2023-02-15T16:57:52.706Z,0
2023-02-15T16:58:55.781Z,0
2023-02-15T16:59:58.964Z,0
2023-02-15T17:01:04.086Z,0
2023-02-15T17:03:14.100Z,0
2023-02-15T17:04:17.139Z,0
2023-02-15T17:05:20.806Z,0
2023-02-15T17:06:24.939Z,0
2023-02-15T17:08:31.458Z,0
2023-02-15T17:09:34.352Z,0
2023-02-15T17:11:40.321Z,0
2023-02-15T17:12:43.705Z,0
2023-02-15T17:13:47.333Z,0
2023-02-15T17:14:50.343Z,0
2023-02-15T17:16:56.631Z,0
2023-02-15T17:17:59.629Z,0
2023-02-15T17:20:05.763Z,0
2023-02-15T17:22:14.182Z,0
2023-02-15T17:23:17.588Z,0
2023-02-15T17:25:23.741Z,0
2023-02-15T17:27:31.277Z,0
2023-02-15T17:29:38.949Z,0
2023-02-15T17:30:43.371Z,0
2023-02-15T17:32:50.463Z,0
2023-02-15T17:34:57.214Z,0
2023-02-15T17:36:00.522Z,0
2023-02-15T17:38:08.256Z,0
2023-02-15T17:40:17.405Z,0
2023-02-15T17:41:20.691Z,0
2023-02-15T17:43:27.112Z,0
2023-02-15T17:45:34.911Z,0
2023-02-15T17:47:41.075Z,0
2023-02-15T17:48:44.376Z,0
2023-02-15T17:50:49.885Z,0
2023-02-15T17:52:56.825Z,0
2023-02-15T17:55:03.352Z,0
2023-02-15T17:56:06.989Z,0
2023-02-15T17:58:14.300Z,0
2023-02-15T18:00:20.868Z,0
2023-02-15T18:02:27.506Z,0
2023-02-15T18:03:30.888Z,0
2023-02-15T18:05:38.328Z,0
2023-02-15T18:07:45.194Z,0
2023-02-15T18:09:52.674Z,0
2023-02-15T18:10:56.045Z,0
2023-02-15T18:13:02.533Z,0
2023-02-15T18:15:13.452Z,0
2023-02-15T18:16:16.735Z,0
2023-02-15T18:17:19.779Z,0
2023-02-15T18:18:23.518Z,0
2023-02-15T18:20:29.927Z,0
2023-02-15T18:21:32.734Z,0
2023-02-15T18:23:39.160Z,0
2023-02-15T18:25:47.460Z,0
2023-02-15T18:27:57.105Z,0
2023-02-15T18:29:00.849Z,0
2023-02-15T18:31:08.852Z,0
2023-02-15T18:33:16.263Z,0
2023-02-15T18:35:22.454Z,0
2023-02-15T18:36:25.521Z,0
2023-02-15T18:38:31.319Z,0
2023-02-15T18:40:38.590Z,0
2023-02-15T18:41:42.335Z,0
2023-02-15T18:43:47.972Z,0
2023-02-15T18:45:54.530Z,0
2023-02-15T18:48:01.192Z,0
2023-02-15T18:49:04.537Z,0
2023-02-15T18:51:10.984Z,0
2023-02-15T18:53:17.594Z,0
2023-02-15T18:55:24.104Z,0
2023-02-15T18:56:27.672Z,0
2023-02-15T18:58:34.933Z,0
2023-02-15T19:00:40.906Z,0
2023-02-15T19:01:43.944Z,0
2023-02-15T19:03:50.730Z,0
2023-02-15T19:05:56.729Z,0
2023-02-15T19:08:02.795Z,0
2023-02-15T19:09:06.218Z,0
2023-02-15T19:11:12.295Z,0
2023-02-15T19:13:19.825Z,0
2023-02-15T19:14:23.514Z,0
2023-02-15T19:15:26.872Z,0
2023-02-15T19:16:30.268Z,0
2023-02-15T19:18:35.621Z,0
2023-02-15T19:19:39.349Z,0
2023-02-15T19:20:43.365Z,0
2023-02-15T19:21:46.998Z,0
2023-02-15T19:23:53.801Z,0
2023-02-15T19:24:57.427Z,0
2023-02-15T19:26:01.232Z,0
2023-02-15T19:27:04.792Z,0
2023-02-15T19:29:12.124Z,0
2023-02-15T19:30:15.699Z,0
2023-02-15T19:32:23.515Z,0
2023-02-15T19:34:30.052Z,0
2023-02-15T19:36:36.422Z,0
2023-02-15T19:37:42.755Z,0
2023-02-15T19:39:48.212Z,0
2023-02-15T19:41:55.143Z,0
2023-02-15T19:44:02.154Z,0
2023-02-15T19:45:05.920Z,0
2023-02-15T19:47:13.271Z,0
2023-02-15T19:49:19.650Z,0
2023-02-15T19:50:22.916Z,0
2023-02-15T19:51:26.639Z,0
2023-02-15T19:52:29.643Z,0
2023-02-15T19:54:36.421Z,0
2023-02-15T19:55:39.747Z,0
2023-02-15T19:57:45.378Z,0
2023-02-15T19:59:55.557Z,0
2023-02-15T20:02:03.393Z,0
2023-02-15T20:03:07.041Z,0
2023-02-15T20:05:13.044Z,0
2023-02-15T20:07:19.490Z,0
2023-02-15T20:09:26.648Z,0
2023-02-15T20:10:29.828Z,0
2023-02-15T20:12:35.710Z,0
2023-02-15T20:14:41.787Z,0
2023-02-15T20:16:49.960Z,0
2023-02-15T20:17:53.039Z,0
2023-02-15T20:19:58.510Z,0
2023-02-15T20:22:07.453Z,0
2023-02-15T20:23:10.520Z,0
2023-02-15T20:25:16.397Z,0
2023-02-15T20:27:23.145Z,0
2023-02-15T20:28:26.405Z,0
2023-02-15T20:29:30.140Z,0
2023-02-15T20:30:34.341Z,0
2023-02-15T20:32:42.492Z,0
2023-02-15T20:33:45.662Z,0
2023-02-15T20:34:48.669Z,0
2023-02-15T20:35:51.782Z,0
2023-02-15T20:37:58.263Z,0
2023-02-15T20:39:01.899Z,0
2023-02-15T20:40:05.027Z,0
2023-02-15T20:41:08.009Z,0
2023-02-15T20:43:15.450Z,0
2023-02-15T20:45:21.933Z,0
2023-02-15T20:47:30.274Z,0
2023-02-15T20:48:34.018Z,0
2023-02-15T20:50:44.010Z,0
2023-02-15T20:52:50.042Z,0
2023-02-15T20:54:55.735Z,0
2023-02-15T20:55:59.254Z,0
2023-02-15T20:58:05.807Z,0
2023-02-15T21:00:11.285Z,0
2023-02-15T21:01:14.285Z,0
2023-02-15T21:02:17.806Z,0
2023-02-15T21:03:22.104Z,0
2023-02-15T21:05:29.143Z,0
2023-02-15T21:07:35.098Z,0
2023-02-15T21:08:39.138Z,0
2023-02-15T21:09:42.419Z,0
2023-02-15T21:10:45.745Z,0
2023-02-15T21:12:52.381Z,0
2023-02-15T21:14:58.685Z,0
2023-02-15T21:16:02.541Z,0
2023-02-15T21:18:10.328Z,0
2023-02-15T21:20:18.160Z,0
2023-02-15T21:22:25.383Z,0
2023-02-15T21:23:28.798Z,0
2023-02-15T21:25:34.745Z,0
2023-02-15T21:27:41.527Z,0
2023-02-15T21:28:44.382Z,0
2023-02-15T21:29:47.737Z,0
2023-02-15T21:30:51.413Z,0
2023-02-15T21:32:59.715Z,0
2023-02-15T21:35:06.709Z,0
2023-02-15T21:36:10.470Z,0
2023-02-15T21:38:16.666Z,0
2023-02-15T21:40:23.816Z,0
2023-02-15T21:42:31.247Z,0
2023-02-15T21:43:34.671Z,0
2023-02-15T21:45:40.677Z,0
2023-02-15T21:47:47.696Z,0
2023-02-15T21:49:53.184Z,0
2023-02-15T21:50:56.779Z,0
2023-02-15T21:53:03.396Z,0
2023-02-15T21:55:09.527Z,0
2023-02-15T21:56:12.636Z,0
2023-02-15T21:57:16.050Z,0
2023-02-15T21:58:19.115Z,0
2023-02-15T22:00:26.392Z,0
2023-02-15T22:01:29.525Z,0
2023-02-15T22:03:37.196Z,0
2023-02-15T22:05:44.044Z,0
2023-02-15T22:06:47.607Z,0
2023-02-15T22:08:54.732Z,0
2023-02-15T22:11:00.861Z,0
2023-02-15T22:13:07.239Z,0
2023-02-15T22:14:10.322Z,0
2023-02-15T22:16:17.840Z,0
2023-02-15T22:18:23.699Z,0
2023-02-15T22:19:27.359Z,0
2023-02-15T22:21:33.819Z,0
2023-02-15T22:23:41.797Z,0
2023-02-15T22:25:50.791Z,0
2023-02-15T22:26:54.001Z,0
2023-02-15T22:29:00.546Z,0
2023-02-15T22:31:08.650Z,0
2023-02-15T22:33:16.202Z,0
2023-02-15T22:34:19.298Z,0
2023-02-15T22:35:22.348Z,0
2023-02-15T22:36:26.030Z,0
2023-02-15T22:38:32.930Z,0
2023-02-15T22:39:36.956Z,0
2023-02-15T22:40:39.746Z,0
2023-02-15T22:41:43.220Z,0
2023-02-15T22:43:50.018Z,0
2023-02-15T22:45:59.350Z,0
2023-02-15T22:47:03.375Z,0
2023-02-15T22:49:09.866Z,0
2023-02-15T22:51:16.091Z,0
2023-02-15T22:52:19.434Z,0
2023-02-15T22:53:22.530Z,0
2023-02-15T22:54:25.974Z,0
2023-02-15T22:56:33.014Z,0
2023-02-15T22:57:36.096Z,0
2023-02-15T22:58:39.735Z,0
2023-02-15T22:59:43.216Z,0
2023-02-15T23:01:56.054Z,0
2023-02-15T23:04:08.923Z,0
2023-02-15T23:05:15.775Z,0
2023-02-15T23:06:22.222Z,0
2023-02-15T23:07:26.852Z,0
2023-02-15T23:09:38.259Z,0
2023-02-15T23:10:44.466Z,0
2023-02-15T23:11:51.389Z,0
2023-02-15T23:12:55.891Z,0
2023-02-15T23:14:00.327Z,0
2023-02-15T23:15:04.972Z,0
2023-02-15T23:17:16.532Z,0
2023-02-15T23:18:23.582Z,0
2023-02-15T23:20:34.448Z,0
2023-02-15T23:21:41.314Z,0
2023-02-15T23:22:47.241Z,0
2023-02-15T23:23:52.704Z,0
2023-02-15T23:24:58.878Z,0
2023-02-15T23:26:07.470Z,0
2023-02-15T23:27:13.078Z,0
2023-02-15T23:28:19.073Z,0
2023-02-15T23:30:30.063Z,0
2023-02-15T23:31:37.942Z,0
2023-02-15T23:32:43.995Z,0
2023-02-15T23:33:49.902Z,0
2023-02-15T23:35:59.340Z,0